Coleman A. Young Municipal Airport
KDET : now visible

Airfield :











YOU CAN JOIN US ON...

 
LOGIN :

Register | Disclaimer

   EN    FR    IT 

 









Legend :    VFR   Marginal VFR   IFR   Intensive IFR   Very Intensive IFR
Visi :
Ceiling :
>= 8 km
>= 3000ft
5 to 8 km
1000 to 3000 ft
1500m to 5 km
500 to 1000 ft
800 to 1500m
200 to 500 ft
< 800m
< 200 ft
Symbols :   Thunderstorms  Fog  Heavy snow  Heavy precipitations  Wind > 20 kt






- Airport Elevation : 626 ft
- IATA code : DET


KDET - Coleman A. Young Municipal

CURRENT METAR :
  • 060453Z 11003KT 10SM CLR 23/14 A2999 RMK AO2 SLP151 T02280144 403170172

EXPIRED METARs :
  • 060353Z 00000KT 10SM CLR 26/14 A2999 RMK AO2 SLPNO T02560139
  • 060253Z 19004KT 10SM CLR 26/14 A2998 RMK AO2 SLPNO T02560139 53012

TAF KDET
Valid from the 06 at 06:00 until the 07 at 06:00 UTC


060541Z 0606/0706 21003KT P6SM SCT120
FM061600 19006KT P6SM FEW080
FM062000 16006KT P6SM SCT070
FM070200 14003KT P6SM FEW080
KZOB FIR / North America



MET'MAP, your aeronautical weather chart ! - Copyright ORBIFLY December 2007 - Disclaimer

ORBIFLY MET'MAP TEAM :

Programming & Development : Alexandra Zaïnal
Concept & original design : Baudouin d'Aumeries
Assistance for programming : Marc-Olivier Méhu
Technical & hardware support : Manuel Goepfert

Contact : metmap@orbifly.com




SOURCES & CREDITS :

   NOAA       Earth
Advisory